sensor_id;sensor_type;location;lat;lon;timestamp;temperature;humidity
32650;DHT22;19055;51.064;3.712;2022-09-01T00:01:36;21.10;64.80
32650;DHT22;19055;51.064;3.712;2022-09-01T00:04:04;21.00;65.00
32650;DHT22;19055;51.064;3.712;2022-09-01T00:06:31;20.90;65.30
32650;DHT22;19055;51.064;3.712;2022-09-01T00:09:01;20.90;65.60
32650;DHT22;19055;51.064;3.712;2022-09-01T00:11:28;20.90;65.80
32650;DHT22;19055;51.064;3.712;2022-09-01T00:13:55;20.80;66.00
32650;DHT22;19055;51.064;3.712;2022-09-01T00:16:21;20.80;66.60
32650;DHT22;19055;51.064;3.712;2022-09-01T00:18:50;20.80;66.80
32650;DHT22;19055;51.064;3.712;2022-09-01T00:21:32;20.70;66.90
32650;DHT22;19055;51.064;3.712;2022-09-01T00:23:59;20.60;67.20
32650;DHT22;19055;51.064;3.712;2022-09-01T00:26:25;20.60;67.50
32650;DHT22;19055;51.064;3.712;2022-09-01T00:28:52;20.50;67.60
32650;DHT22;19055;51.064;3.712;2022-09-01T00:31:19;20.50;67.80
32650;DHT22;19055;51.064;3.712;2022-09-01T00:33:46;20.50;67.70
32650;DHT22;19055;51.064;3.712;2022-09-01T00:36:12;20.40;67.80
32650;DHT22;19055;51.064;3.712;2022-09-01T00:38:38;20.30;67.90
32650;DHT22;19055;51.064;3.712;2022-09-01T00:41:05;20.20;68.70
32650;DHT22;19055;51.064;3.712;2022-09-01T00:43:45;20.20;67.90
32650;DHT22;19055;51.064;3.712;2022-09-01T00:46:18;20.20;67.50
32650;DHT22;19055;51.064;3.712;2022-09-01T00:48:46;20.20;67.40
32650;DHT22;19055;51.064;3.712;2022-09-01T00:51:16;20.20;67.40
32650;DHT22;19055;51.064;3.712;2022-09-01T00:53:42;20.10;67.20
32650;DHT22;19055;51.064;3.712;2022-09-01T00:56:11;20.10;67.30
32650;DHT22;19055;51.064;3.712;2022-09-01T00:58:37;20.10;67.20
32650;DHT22;19055;51.064;3.712;2022-09-01T01:01:06;20.10;66.90
32650;DHT22;19055;51.064;3.712;2022-09-01T01:03:32;20.20;66.80
32650;DHT22;19055;51.064;3.712;2022-09-01T01:06:01;20.20;66.50
32650;DHT22;19055;51.064;3.712;2022-09-01T01:08:30;20.20;66.30
32650;DHT22;19055;51.064;3.712;2022-09-01T01:11:08;20.20;66.20
32650;DHT22;19055;51.064;3.712;2022-09-01T01:13:51;20.30;65.90
32650;DHT22;19055;51.064;3.712;2022-09-01T01:16:20;20.30;65.30
32650;DHT22;19055;51.064;3.712;2022-09-01T01:18:46;20.30;65.00
32650;DHT22;19055;51.064;3.712;2022-09-01T01:21:22;20.30;64.80
32650;DHT22;19055;51.064;3.712;2022-09-01T01:26:49;20.20;64.60
32650;DHT22;19055;51.064;3.712;2022-09-01T01:29:15;20.10;64.50
32650;DHT22;19055;51.064;3.712;2022-09-01T01:31:44;20.10;64.70
32650;DHT22;19055;51.064;3.712;2022-09-01T01:34:12;20.10;64.50
32650;DHT22;19055;51.064;3.712;2022-09-01T01:36:39;20.10;64.50
32650;DHT22;19055;51.064;3.712;2022-09-01T01:39:20;20.10;64.20
32650;DHT22;19055;51.064;3.712;2022-09-01T01:41:52;19.90;64.20
32650;DHT22;19055;51.064;3.712;2022-09-01T01:44:24;19.90;64.40
32650;DHT22;19055;51.064;3.712;2022-09-01T01:46:54;19.80;64.40
32650;DHT22;19055;51.064;3.712;2022-09-01T01:49:23;19.80;64.10
32650;DHT22;19055;51.064;3.712;2022-09-01T01:51:51;19.70;64.10
32650;DHT22;19055;51.064;3.712;2022-09-01T01:54:21;19.70;64.10
32650;DHT22;19055;51.064;3.712;2022-09-01T01:56:48;19.60;64.60
32650;DHT22;19055;51.064;3.712;2022-09-01T01:59:14;19.60;64.50
32650;DHT22;19055;51.064;3.712;2022-09-01T02:01:43;19.50;64.90
32650;DHT22;19055;51.064;3.712;2022-09-01T02:04:16;19.30;65.00
32650;DHT22;19055;51.064;3.712;2022-09-01T02:06:45;19.30;65.60
32650;DHT22;19055;51.064;3.712;2022-09-01T02:09:16;19.30;65.10
32650;DHT22;19055;51.064;3.712;2022-09-01T02:11:42;19.30;65.20
32650;DHT22;19055;51.064;3.712;2022-09-01T02:14:10;19.30;65.10
32650;DHT22;19055;51.064;3.712;2022-09-01T02:16:37;19.20;64.80
32650;DHT22;19055;51.064;3.712;2022-09-01T02:19:06;19.20;65.30
32650;DHT22;19055;51.064;3.712;2022-09-01T02:21:33;19.20;65.20
32650;DHT22;19055;51.064;3.712;2022-09-01T02:24:03;19.30;65.20
32650;DHT22;19055;51.064;3.712;2022-09-01T02:29:01;19.40;64.50
32650;DHT22;19055;51.064;3.712;2022-09-01T02:31:34;19.40;64.40
32650;DHT22;19055;51.064;3.712;2022-09-01T02:34:01;19.40;64.10
32650;DHT22;19055;51.064;3.712;2022-09-01T02:36:28;19.40;63.90
32650;DHT22;19055;51.064;3.712;2022-09-01T02:38:57;19.30;64.10
32650;DHT22;19055;51.064;3.712;2022-09-01T02:41:23;19.30;64.00
32650;DHT22;19055;51.064;3.712;2022-09-01T02:43:53;19.30;64.20
32650;DHT22;19055;51.064;3.712;2022-09-01T02:46:19;19.30;64.20
32650;DHT22;19055;51.064;3.712;2022-09-01T02:48:48;19.40;64.00
32650;DHT22;19055;51.064;3.712;2022-09-01T02:51:18;19.30;64.00
32650;DHT22;19055;51.064;3.712;2022-09-01T02:53:45;19.40;64.00
32650;DHT22;19055;51.064;3.712;2022-09-01T02:56:18;19.40;63.60
32650;DHT22;19055;51.064;3.712;2022-09-01T02:58:45;19.40;63.70
32650;DHT22;19055;51.064;3.712;2022-09-01T03:01:15;19.30;63.60
32650;DHT22;19055;51.064;3.712;2022-09-01T03:03:45;19.30;63.80
32650;DHT22;19055;51.064;3.712;2022-09-01T03:06:10;19.30;64.10
32650;DHT22;19055;51.064;3.712;2022-09-01T03:08:37;19.30;64.20
32650;DHT22;19055;51.064;3.712;2022-09-01T03:11:06;19.40;63.80
32650;DHT22;19055;51.064;3.712;2022-09-01T03:13:36;19.30;63.80
32650;DHT22;19055;51.064;3.712;2022-09-01T03:16:05;19.20;64.00
32650;DHT22;19055;51.064;3.712;2022-09-01T03:18:32;19.20;64.60
32650;DHT22;19055;51.064;3.712;2022-09-01T03:20:58;19.20;64.60
32650;DHT22;19055;51.064;3.712;2022-09-01T03:23:24;19.20;64.40
32650;DHT22;19055;51.064;3.712;2022-09-01T03:25:52;19.20;64.80
32650;DHT22;19055;51.064;3.712;2022-09-01T03:28:18;19.20;65.00
32650;DHT22;19055;51.064;3.712;2022-09-01T03:30:47;19.10;64.80
32650;DHT22;19055;51.064;3.712;2022-09-01T03:33:15;19.20;64.80
32650;DHT22;19055;51.064;3.712;2022-09-01T03:35:42;19.20;64.70
32650;DHT22;19055;51.064;3.712;2022-09-01T03:38:09;19.20;64.90
32650;DHT22;19055;51.064;3.712;2022-09-01T03:40:39;19.10;64.90
32650;DHT22;19055;51.064;3.712;2022-09-01T03:43:08;19.00;65.40
32650;DHT22;19055;51.064;3.712;2022-09-01T03:45:40;19.00;65.50
32650;DHT22;19055;51.064;3.712;2022-09-01T03:48:08;18.90;65.80
32650;DHT22;19055;51.064;3.712;2022-09-01T03:50:38;18.80;66.10
32650;DHT22;19055;51.064;3.712;2022-09-01T03:53:11;18.80;66.70
32650;DHT22;19055;51.064;3.712;2022-09-01T03:55:38;18.70;66.80
32650;DHT22;19055;51.064;3.712;2022-09-01T03:58:08;18.80;66.90
32650;DHT22;19055;51.064;3.712;2022-09-01T04:00:41;18.70;67.00
32650;DHT22;19055;51.064;3.712;2022-09-01T04:03:09;18.70;67.10
32650;DHT22;19055;51.064;3.712;2022-09-01T04:05:42;18.60;67.70
32650;DHT22;19055;51.064;3.712;2022-09-01T04:08:10;18.40;68.20
32650;DHT22;19055;51.064;3.712;2022-09-01T04:10:44;18.40;68.70
32650;DHT22;19055;51.064;3.712;2022-09-01T04:13:17;18.40;68.80
32650;DHT22;19055;51.064;3.712;2022-09-01T04:15:43;18.40;68.80
32650;DHT22;19055;51.064;3.712;2022-09-01T04:18:10;18.40;69.00
32650;DHT22;19055;51.064;3.712;2022-09-01T04:20:47;18.40;68.90
32650;DHT22;19055;51.064;3.712;2022-09-01T04:23:20;18.40;68.80
32650;DHT22;19055;51.064;3.712;2022-09-01T04:26:03;18.40;69.00
32650;DHT22;19055;51.064;3.712;2022-09-01T04:31:08;18.30;69.50
32650;DHT22;19055;51.064;3.712;2022-09-01T04:33:37;18.10;69.90
32650;DHT22;19055;51.064;3.712;2022-09-01T04:36:19;18.10;70.40
32650;DHT22;19055;51.064;3.712;2022-09-01T04:38:49;18.00;70.70
32650;DHT22;19055;51.064;3.712;2022-09-01T04:41:15;18.00;71.00
32650;DHT22;19055;51.064;3.712;2022-09-01T04:43:43;18.00;71.20
32650;DHT22;19055;51.064;3.712;2022-09-01T04:46:15;18.00;71.10
32650;DHT22;19055;51.064;3.712;2022-09-01T04:48:42;18.00;71.00
32650;DHT22;19055;51.064;3.712;2022-09-01T04:51:11;18.10;71.20
32650;DHT22;19055;51.064;3.712;2022-09-01T04:53:50;18.00;71.10
32650;DHT22;19055;51.064;3.712;2022-09-01T04:56:18;18.00;71.30
32650;DHT22;19055;51.064;3.712;2022-09-01T04:58:53;17.90;71.60
32650;DHT22;19055;51.064;3.712;2022-09-01T05:01:25;17.90;71.90
32650;DHT22;19055;51.064;3.712;2022-09-01T05:03:51;17.80;72.40
32650;DHT22;19055;51.064;3.712;2022-09-01T05:06:41;17.80;72.60
32650;DHT22;19055;51.064;3.712;2022-09-01T05:09:11;17.80;72.40
32650;DHT22;19055;51.064;3.712;2022-09-01T05:12:06;17.90;72.30
32650;DHT22;19055;51.064;3.712;2022-09-01T05:14:42;17.80;72.50
32650;DHT22;19055;51.064;3.712;2022-09-01T05:17:09;17.80;72.70
32650;DHT22;19055;51.064;3.712;2022-09-01T05:19:41;17.90;72.70
32650;DHT22;19055;51.064;3.712;2022-09-01T05:22:09;17.90;72.30
32650;DHT22;19055;51.064;3.712;2022-09-01T05:24:39;17.90;72.50
32650;DHT22;19055;51.064;3.712;2022-09-01T05:27:07;17.90;72.60
32650;DHT22;19055;51.064;3.712;2022-09-01T05:29:35;17.90;72.80
32650;DHT22;19055;51.064;3.712;2022-09-01T05:32:05;17.90;72.80
32650;DHT22;19055;51.064;3.712;2022-09-01T05:34:36;17.90;72.60
32650;DHT22;19055;51.064;3.712;2022-09-01T05:37:05;18.00;72.70
32650;DHT22;19055;51.064;3.712;2022-09-01T05:39:32;17.90;72.90
32650;DHT22;19055;51.064;3.712;2022-09-01T05:41:58;18.00;72.90
32650;DHT22;19055;51.064;3.712;2022-09-01T05:44:26;18.00;72.70
32650;DHT22;19055;51.064;3.712;2022-09-01T05:46:54;18.10;72.50
32650;DHT22;19055;51.064;3.712;2022-09-01T05:49:24;18.00;72.40
32650;DHT22;19055;51.064;3.712;2022-09-01T05:51:51;18.10;72.30
32650;DHT22;19055;51.064;3.712;2022-09-01T05:54:23;18.10;72.20
32650;DHT22;19055;51.064;3.712;2022-09-01T05:56:53;18.00;72.50
32650;DHT22;19055;51.064;3.712;2022-09-01T05:59:25;18.00;72.50
32650;DHT22;19055;51.064;3.712;2022-09-01T06:02:08;18.00;72.80
32650;DHT22;19055;51.064;3.712;2022-09-01T06:04:36;18.00;73.00
32650;DHT22;19055;51.064;3.712;2022-09-01T06:07:07;18.00;73.20
32650;DHT22;19055;51.064;3.712;2022-09-01T06:09:40;18.10;73.20
32650;DHT22;19055;51.064;3.712;2022-09-01T06:12:07;18.10;72.90
32650;DHT22;19055;51.064;3.712;2022-09-01T06:14:46;18.20;72.60
32650;DHT22;19055;51.064;3.712;2022-09-01T06:17:14;18.20;72.70
32650;DHT22;19055;51.064;3.712;2022-09-01T06:19:44;18.30;72.40
32650;DHT22;19055;51.064;3.712;2022-09-01T06:22:10;18.40;71.90
32650;DHT22;19055;51.064;3.712;2022-09-01T06:24:39;18.50;71.70
32650;DHT22;19055;51.064;3.712;2022-09-01T06:27:07;18.60;71.60
32650;DHT22;19055;51.064;3.712;2022-09-01T06:29:36;18.60;70.80
32650;DHT22;19055;51.064;3.712;2022-09-01T06:32:06;18.50;71.20
32650;DHT22;19055;51.064;3.712;2022-09-01T06:34:35;18.60;70.90
32650;DHT22;19055;51.064;3.712;2022-09-01T06:37:03;18.70;70.50
32650;DHT22;19055;51.064;3.712;2022-09-01T06:39:29;18.50;70.60
32650;DHT22;19055;51.064;3.712;2022-09-01T06:41:56;18.50;70.30
32650;DHT22;19055;51.064;3.712;2022-09-01T06:44:29;18.40;71.20
32650;DHT22;19055;51.064;3.712;2022-09-01T06:47:02;18.40;71.30
32650;DHT22;19055;51.064;3.712;2022-09-01T06:49:29;18.30;71.60
32650;DHT22;19055;51.064;3.712;2022-09-01T06:52:00;18.50;71.10
32650;DHT22;19055;51.064;3.712;2022-09-01T06:54:29;18.70;70.30
32650;DHT22;19055;51.064;3.712;2022-09-01T06:57:00;18.70;69.30
32650;DHT22;19055;51.064;3.712;2022-09-01T06:59:29;18.70;70.00
32650;DHT22;19055;51.064;3.712;2022-09-01T07:01:57;18.80;69.80
32650;DHT22;19055;51.064;3.712;2022-09-01T07:04:31;18.90;69.00
32650;DHT22;19055;51.064;3.712;2022-09-01T07:07:02;18.80;69.70
32650;DHT22;19055;51.064;3.712;2022-09-01T07:09:50;19.00;69.30
32650;DHT22;19055;51.064;3.712;2022-09-01T07:12:42;19.00;69.20
32650;DHT22;19055;51.064;3.712;2022-09-01T07:15:11;18.90;69.10
32650;DHT22;19055;51.064;3.712;2022-09-01T07:17:40;18.70;70.20
32650;DHT22;19055;51.064;3.712;2022-09-01T07:20:07;18.80;70.20
32650;DHT22;19055;51.064;3.712;2022-09-01T07:22:35;19.00;69.50
32650;DHT22;19055;51.064;3.712;2022-09-01T07:25:02;19.10;69.10
32650;DHT22;19055;51.064;3.712;2022-09-01T07:27:46;19.10;69.10
32650;DHT22;19055;51.064;3.712;2022-09-01T07:30:17;19.20;69.10
32650;DHT22;19055;51.064;3.712;2022-09-01T07:32:44;19.30;68.90
32650;DHT22;19055;51.064;3.712;2022-09-01T07:35:13;19.60;68.80
32650;DHT22;19055;51.064;3.712;2022-09-01T07:37:39;19.70;67.40
32650;DHT22;19055;51.064;3.712;2022-09-01T07:40:13;19.60;68.30
32650;DHT22;19055;51.064;3.712;2022-09-01T07:43:16;19.80;68.20
32650;DHT22;19055;51.064;3.712;2022-09-01T07:46:14;20.00;67.20
32650;DHT22;19055;51.064;3.712;2022-09-01T07:48:41;20.20;67.00
32650;DHT22;19055;51.064;3.712;2022-09-01T07:51:10;20.50;66.20
32650;DHT22;19055;51.064;3.712;2022-09-01T07:53:37;21.00;64.90
32650;DHT22;19055;51.064;3.712;2022-09-01T07:56:09;21.50;62.70
32650;DHT22;19055;51.064;3.712;2022-09-01T07:58:41;22.20;60.80
32650;DHT22;19055;51.064;3.712;2022-09-01T08:01:08;23.80;57.60
32650;DHT22;19055;51.064;3.712;2022-09-01T08:03:37;25.80;54.00
32650;DHT22;19055;51.064;3.712;2022-09-01T08:06:07;26.90;50.40
32650;DHT22;19055;51.064;3.712;2022-09-01T08:08:35;27.30;49.10
32650;DHT22;19055;51.064;3.712;2022-09-01T08:11:01;27.50;47.90
32650;DHT22;19055;51.064;3.712;2022-09-01T08:13:28;27.60;47.90
32650;DHT22;19055;51.064;3.712;2022-09-01T08:15:54;27.80;47.50
32650;DHT22;19055;51.064;3.712;2022-09-01T08:18:20;28.50;46.70
32650;DHT22;19055;51.064;3.712;2022-09-01T08:20:47;29.20;45.70
32650;DHT22;19055;51.064;3.712;2022-09-01T08:23:33;29.20;45.00
32650;DHT22;19055;51.064;3.712;2022-09-01T08:26:05;29.30;44.40
32650;DHT22;19055;51.064;3.712;2022-09-01T08:28:31;29.90;44.20
32650;DHT22;19055;51.064;3.712;2022-09-01T08:30:58;30.40;42.50
32650;DHT22;19055;51.064;3.712;2022-09-01T08:33:25;29.70;44.10
32650;DHT22;19055;51.064;3.712;2022-09-01T08:35:52;29.80;44.10
32650;DHT22;19055;51.064;3.712;2022-09-01T08:38:18;30.70;42.70
32650;DHT22;19055;51.064;3.712;2022-09-01T08:40:51;30.80;42.10
32650;DHT22;19055;51.064;3.712;2022-09-01T08:46:27;30.60;42.30
32650;DHT22;19055;51.064;3.712;2022-09-01T08:48:58;30.30;43.00
32650;DHT22;19055;51.064;3.712;2022-09-01T08:51:38;29.90;43.30
32650;DHT22;19055;51.064;3.712;2022-09-01T08:54:23;28.90;45.70
32650;DHT22;19055;51.064;3.712;2022-09-01T08:56:57;29.70;44.50
32650;DHT22;19055;51.064;3.712;2022-09-01T08:59:43;30.00;44.00
32650;DHT22;19055;51.064;3.712;2022-09-01T09:11:03;28.70;46.70
32650;DHT22;19055;51.064;3.712;2022-09-01T09:16:07;30.00;44.50
32650;DHT22;19055;51.064;3.712;2022-09-01T09:18:50;30.20;43.50
32650;DHT22;19055;51.064;3.712;2022-09-01T09:21:36;30.00;43.70
32650;DHT22;19055;51.064;3.712;2022-09-01T09:24:29;29.50;44.40
32650;DHT22;19055;51.064;3.712;2022-09-01T09:27:22;27.70;47.80
32650;DHT22;19055;51.064;3.712;2022-09-01T09:29:54;26.60;50.60
32650;DHT22;19055;51.064;3.712;2022-09-01T09:32:22;26.70;51.20
32650;DHT22;19055;51.064;3.712;2022-09-01T09:34:49;27.50;49.50
32650;DHT22;19055;51.064;3.712;2022-09-01T09:37:21;28.70;47.20
32650;DHT22;19055;51.064;3.712;2022-09-01T09:40:24;29.80;45.10
32650;DHT22;19055;51.064;3.712;2022-09-01T09:45:37;30.50;43.50
32650;DHT22;19055;51.064;3.712;2022-09-01T09:48:07;31.10;42.40
32650;DHT22;19055;51.064;3.712;2022-09-01T09:50:42;31.40;41.40
32650;DHT22;19055;51.064;3.712;2022-09-01T09:53:27;29.50;44.60
32650;DHT22;19055;51.064;3.712;2022-09-01T09:56:03;29.30;45.90
32650;DHT22;19055;51.064;3.712;2022-09-01T09:58:37;29.30;45.40
32650;DHT22;19055;51.064;3.712;2022-09-01T10:03:49;30.10;44.20
32650;DHT22;19055;51.064;3.712;2022-09-01T10:09:04;31.30;41.10
32650;DHT22;19055;51.064;3.712;2022-09-01T10:11:40;30.80;41.80
32650;DHT22;19055;51.064;3.712;2022-09-01T10:14:24;30.50;42.80
32650;DHT22;19055;51.064;3.712;2022-09-01T10:17:04;31.00;42.50
32650;DHT22;19055;51.064;3.712;2022-09-01T10:19:32;31.60;41.30
32650;DHT22;19055;51.064;3.712;2022-09-01T10:22:00;31.40;40.30
32650;DHT22;19055;51.064;3.712;2022-09-01T10:26:59;30.70;41.70
32650;DHT22;19055;51.064;3.712;2022-09-01T10:29:33;29.70;41.30
32650;DHT22;19055;51.064;3.712;2022-09-01T10:32:05;29.00;44.00
32650;DHT22;19055;51.064;3.712;2022-09-01T10:34:36;28.70;43.90
32650;DHT22;19055;51.064;3.712;2022-09-01T10:37:03;28.10;45.20
32650;DHT22;19055;51.064;3.712;2022-09-01T10:39:30;28.70;44.20
32650;DHT22;19055;51.064;3.712;2022-09-01T10:42:00;28.60;44.30
32650;DHT22;19055;51.064;3.712;2022-09-01T10:44:54;28.20;44.40
32650;DHT22;19055;51.064;3.712;2022-09-01T10:55:31;28.90;45.00
32650;DHT22;19055;51.064;3.712;2022-09-01T11:00:53;28.60;43.80
32650;DHT22;19055;51.064;3.712;2022-09-01T11:03:31;28.50;44.70
32650;DHT22;19055;51.064;3.712;2022-09-01T11:05:59;28.90;44.40
32650;DHT22;19055;51.064;3.712;2022-09-01T11:11:42;28.50;45.00
32650;DHT22;19055;51.064;3.712;2022-09-01T11:14:50;28.70;43.90
32650;DHT22;19055;51.064;3.712;2022-09-01T11:22:45;27.90;44.80
32650;DHT22;19055;51.064;3.712;2022-09-01T11:25:41;27.70;46.20
32650;DHT22;19055;51.064;3.712;2022-09-01T11:33:25;28.30;44.80
32650;DHT22;19055;51.064;3.712;2022-09-01T11:36:00;27.90;45.20
32650;DHT22;19055;51.064;3.712;2022-09-01T11:38:28;27.00;47.10
32650;DHT22;19055;51.064;3.712;2022-09-01T11:40:57;27.10;47.70
32650;DHT22;19055;51.064;3.712;2022-09-01T11:43:24;27.40;47.20
32650;DHT22;19055;51.064;3.712;2022-09-01T11:46:19;27.70;45.70
32650;DHT22;19055;51.064;3.712;2022-09-01T11:48:47;28.00;45.50
32650;DHT22;19055;51.064;3.712;2022-09-01T11:51:14;27.80;45.90
32650;DHT22;19055;51.064;3.712;2022-09-01T11:53:41;27.50;46.30
32650;DHT22;19055;51.064;3.712;2022-09-01T11:56:17;27.30;46.80
32650;DHT22;19055;51.064;3.712;2022-09-01T11:58:43;27.70;46.90
32650;DHT22;19055;51.064;3.712;2022-09-01T12:01:22;28.10;45.40
32650;DHT22;19055;51.064;3.712;2022-09-01T12:03:56;28.50;45.60
32650;DHT22;19055;51.064;3.712;2022-09-01T12:06:27;28.80;43.70
32650;DHT22;19055;51.064;3.712;2022-09-01T12:09:04;28.70;44.30
32650;DHT22;19055;51.064;3.712;2022-09-01T12:11:32;28.70;43.70
32650;DHT22;19055;51.064;3.712;2022-09-01T12:14:19;28.50;43.90
32650;DHT22;19055;51.064;3.712;2022-09-01T12:16:59;28.60;43.90
32650;DHT22;19055;51.064;3.712;2022-09-01T12:19:30;28.70;43.50
32650;DHT22;19055;51.064;3.712;2022-09-01T12:22:14;28.90;43.50
32650;DHT22;19055;51.064;3.712;2022-09-01T12:24:45;28.30;43.30
32650;DHT22;19055;51.064;3.712;2022-09-01T12:27:13;28.10;44.00
32650;DHT22;19055;51.064;3.712;2022-09-01T12:29:40;28.20;43.60
32650;DHT22;19055;51.064;3.712;2022-09-01T12:32:06;28.00;43.00
32650;DHT22;19055;51.064;3.712;2022-09-01T12:37:22;28.70;43.40
32650;DHT22;19055;51.064;3.712;2022-09-01T12:39:57;29.10;42.80
32650;DHT22;19055;51.064;3.712;2022-09-01T12:42:25;28.90;41.60
32650;DHT22;19055;51.064;3.712;2022-09-01T12:44:54;28.50;42.30
32650;DHT22;19055;51.064;3.712;2022-09-01T12:50:14;28.20;42.60
32650;DHT22;19055;51.064;3.712;2022-09-01T12:52:55;28.50;42.00
32650;DHT22;19055;51.064;3.712;2022-09-01T12:58:02;29.00;40.50
32650;DHT22;19055;51.064;3.712;2022-09-01T13:01:22;28.90;41.20
32650;DHT22;19055;51.064;3.712;2022-09-01T13:03:17;28.80;41.60
32650;DHT22;19055;51.064;3.712;2022-09-01T13:05:48;28.60;41.30
32650;DHT22;19055;51.064;3.712;2022-09-01T13:08:19;28.40;41.80
32650;DHT22;19055;51.064;3.712;2022-09-01T13:11:14;28.20;41.60
32650;DHT22;19055;51.064;3.712;2022-09-01T13:13:38;28.00;42.10
32650;DHT22;19055;51.064;3.712;2022-09-01T13:16:04;28.40;42.30
32650;DHT22;19055;51.064;3.712;2022-09-01T13:18:37;28.90;41.40
32650;DHT22;19055;51.064;3.712;2022-09-01T13:21:03;29.20;40.90
32650;DHT22;19055;51.064;3.712;2022-09-01T13:23:29;29.20;40.30
32650;DHT22;19055;51.064;3.712;2022-09-01T13:25:55;29.30;39.90
32650;DHT22;19055;51.064;3.712;2022-09-01T13:28:24;29.50;39.50
32650;DHT22;19055;51.064;3.712;2022-09-01T13:30:56;29.00;39.70
32650;DHT22;19055;51.064;3.712;2022-09-01T13:33:23;27.90;41.70
32650;DHT22;19055;51.064;3.712;2022-09-01T13:35:50;27.50;42.50
32650;DHT22;19055;51.064;3.712;2022-09-01T13:38:17;27.30;43.20
32650;DHT22;19055;51.064;3.712;2022-09-01T13:40:44;27.40;43.00
32650;DHT22;19055;51.064;3.712;2022-09-01T13:43:12;27.60;42.90
32650;DHT22;19055;51.064;3.712;2022-09-01T13:45:38;27.80;42.20
32650;DHT22;19055;51.064;3.712;2022-09-01T13:48:08;28.00;41.80
32650;DHT22;19055;51.064;3.712;2022-09-01T13:50:35;28.20;41.50
32650;DHT22;19055;51.064;3.712;2022-09-01T13:53:01;28.40;41.00
32650;DHT22;19055;51.064;3.712;2022-09-01T13:55:30;28.50;41.10
32650;DHT22;19055;51.064;3.712;2022-09-01T13:57:56;28.40;40.40
32650;DHT22;19055;51.064;3.712;2022-09-01T14:00:29;28.20;40.30
32650;DHT22;19055;51.064;3.712;2022-09-01T14:03:00;28.20;40.70
32650;DHT22;19055;51.064;3.712;2022-09-01T14:05:34;27.40;41.90
32650;DHT22;19055;51.064;3.712;2022-09-01T14:08:00;27.20;42.90
32650;DHT22;19055;51.064;3.712;2022-09-01T14:10:28;27.30;42.50
32650;DHT22;19055;51.064;3.712;2022-09-01T14:12:55;27.20;41.80
32650;DHT22;19055;51.064;3.712;2022-09-01T14:15:21;27.10;42.50
32650;DHT22;19055;51.064;3.712;2022-09-01T14:17:51;27.20;42.40
32650;DHT22;19055;51.064;3.712;2022-09-01T14:20:20;26.80;42.50
32650;DHT22;19055;51.064;3.712;2022-09-01T14:22:47;26.70;42.70
32650;DHT22;19055;51.064;3.712;2022-09-01T14:25:15;26.70;42.10
32650;DHT22;19055;51.064;3.712;2022-09-01T14:27:41;26.70;42.70
32650;DHT22;19055;51.064;3.712;2022-09-01T14:30:10;26.80;43.00
32650;DHT22;19055;51.064;3.712;2022-09-01T14:32:36;26.80;42.70
32650;DHT22;19055;51.064;3.712;2022-09-01T14:35:03;26.70;43.40
32650;DHT22;19055;51.064;3.712;2022-09-01T14:37:29;26.80;43.20
32650;DHT22;19055;51.064;3.712;2022-09-01T14:39:56;26.90;43.30
32650;DHT22;19055;51.064;3.712;2022-09-01T14:42:22;26.90;43.30
32650;DHT22;19055;51.064;3.712;2022-09-01T14:44:51;26.70;43.50
32650;DHT22;19055;51.064;3.712;2022-09-01T14:47:17;26.60;43.80
32650;DHT22;19055;51.064;3.712;2022-09-01T14:49:43;26.70;43.90
32650;DHT22;19055;51.064;3.712;2022-09-01T14:52:10;26.80;43.00
32650;DHT22;19055;51.064;3.712;2022-09-01T14:54:39;27.00;42.30
32650;DHT22;19055;51.064;3.712;2022-09-01T14:57:05;26.90;42.10
32650;DHT22;19055;51.064;3.712;2022-09-01T14:59:32;26.90;42.50
32650;DHT22;19055;51.064;3.712;2022-09-01T15:01:58;27.00;42.50
32650;DHT22;19055;51.064;3.712;2022-09-01T15:04:24;27.20;42.40
32650;DHT22;19055;51.064;3.712;2022-09-01T15:06:50;27.10;42.20
32650;DHT22;19055;51.064;3.712;2022-09-01T15:09:16;27.00;42.80
32650;DHT22;19055;51.064;3.712;2022-09-01T15:11:42;27.10;42.70
32650;DHT22;19055;51.064;3.712;2022-09-01T15:14:08;27.00;42.70
32650;DHT22;19055;51.064;3.712;2022-09-01T15:16:35;26.90;42.80
32650;DHT22;19055;51.064;3.712;2022-09-01T15:19:08;26.90;43.00
32650;DHT22;19055;51.064;3.712;2022-09-01T15:21:40;26.90;42.70
32650;DHT22;19055;51.064;3.712;2022-09-01T15:24:07;26.90;42.60
32650;DHT22;19055;51.064;3.712;2022-09-01T15:26:34;26.90;42.50
32650;DHT22;19055;51.064;3.712;2022-09-01T15:29:00;26.90;42.50
32650;DHT22;19055;51.064;3.712;2022-09-01T15:31:28;26.70;42.90
32650;DHT22;19055;51.064;3.712;2022-09-01T15:33:57;26.60;43.00
32650;DHT22;19055;51.064;3.712;2022-09-01T15:36:26;26.60;43.20
32650;DHT22;19055;51.064;3.712;2022-09-01T15:38:57;26.60;43.10
32650;DHT22;19055;51.064;3.712;2022-09-01T15:41:26;26.70;43.30
32650;DHT22;19055;51.064;3.712;2022-09-01T15:43:52;26.60;42.80
32650;DHT22;19055;51.064;3.712;2022-09-01T15:46:19;26.60;43.20
32650;DHT22;19055;51.064;3.712;2022-09-01T15:48:45;26.70;43.40
32650;DHT22;19055;51.064;3.712;2022-09-01T15:51:30;26.80;42.90
32650;DHT22;19055;51.064;3.712;2022-09-01T15:54:02;26.70;42.50
32650;DHT22;19055;51.064;3.712;2022-09-01T15:56:28;26.60;42.60
32650;DHT22;19055;51.064;3.712;2022-09-01T15:58:56;26.40;42.30
32650;DHT22;19055;51.064;3.712;2022-09-01T16:01:24;26.00;43.00
32650;DHT22;19055;51.064;3.712;2022-09-01T16:03:50;26.00;43.60
32650;DHT22;19055;51.064;3.712;2022-09-01T16:06:16;26.10;43.60
32650;DHT22;19055;51.064;3.712;2022-09-01T16:08:42;26.10;43.30
32650;DHT22;19055;51.064;3.712;2022-09-01T16:11:08;26.10;43.70
32650;DHT22;19055;51.064;3.712;2022-09-01T16:13:36;26.20;44.10
32650;DHT22;19055;51.064;3.712;2022-09-01T16:21:51;26.70;42.90
32650;DHT22;19055;51.064;3.712;2022-09-01T16:24:18;26.60;43.10
32650;DHT22;19055;51.064;3.712;2022-09-01T16:26:46;26.40;43.00
32650;DHT22;19055;51.064;3.712;2022-09-01T16:29:43;26.30;43.20
32650;DHT22;19055;51.064;3.712;2022-09-01T16:32:09;26.30;42.80
32650;DHT22;19055;51.064;3.712;2022-09-01T16:34:36;26.20;43.00
32650;DHT22;19055;51.064;3.712;2022-09-01T16:43:20;26.10;43.10
32650;DHT22;19055;51.064;3.712;2022-09-01T17:00:07;25.80;43.00
32650;DHT22;19055;51.064;3.712;2022-09-01T17:05:26;25.70;43.00
32650;DHT22;19055;51.064;3.712;2022-09-01T17:08:01;25.70;43.10
32650;DHT22;19055;51.064;3.712;2022-09-01T17:10:56;25.60;43.40
32650;DHT22;19055;51.064;3.712;2022-09-01T17:13:44;25.60;43.90
32650;DHT22;19055;51.064;3.712;2022-09-01T17:16:26;25.50;43.80
32650;DHT22;19055;51.064;3.712;2022-09-01T17:19:06;25.30;44.00
32650;DHT22;19055;51.064;3.712;2022-09-01T17:24:42;25.10;44.00
32650;DHT22;19055;51.064;3.712;2022-09-01T17:27:25;25.10;44.70
32650;DHT22;19055;51.064;3.712;2022-09-01T17:29:55;25.20;45.50
32650;DHT22;19055;51.064;3.712;2022-09-01T17:37:58;25.30;44.60